Sd416 Nippon — SKPF — position and weather

sailwx.info

Track history (hours):
 
Tides and Currents Weather Stations Pressure Air Temp Water Temp Dewpoint Dewpoint Depression Visibility Wind Speed Wind Dir Waves Ship Positions

Sd416 Nippon

Last reported at 2016-Jul-26 15:34 UTC. Time now 2016-Jul-26 16:03 UTC.
Position N 58°55' E 011°04'.

Length 17 m; draft 2.5 m.

Type: Fishing. MMSI: 266163000.

Date/timePositionNaut miles runAvg speedWind from/ knotsBaromVisibWave heightAir tempDewpointWater temp
2016-Jul-26 15:34N 58°55' E 011°04'1 1.5
2016-Jul-26 14:33N 58°53' E 011°05'1 1.4
2016-Jul-26 13:33N 58°52' E 011°06'1 1.4
2016-Jul-26 12:33N 58°51' E 011°06'1 1.4
2016-Jul-26 11:33N 58°49' E 011°05'2 1.6
2016-Jul-26 10:33N 58°48' E 011°04'0 0.2
2016-Jul-26 09:34N 58°48' E 011°04'1 1.0
2016-Jul-26 08:34N 58°47' E 011°04'1 0.6
2016-Jul-26 07:33N 58°47' E 011°05'1 1.1
2016-Jul-26 06:34N 58°48' E 011°05'1 1.3
2016-Jul-26 05:33N 58°50' E 011°07'1 1.3
2016-Jul-26 04:33N 58°51' E 011°06'1 1.4
2016-Jul-26 03:33N 58°52' E 011°06'2 2.0
2016-Jul-26 02:33N 58°54' E 011°05'3 3.3
2016-Jul-26 01:34N 58°56' E 011°10'0 0.0
2016-Jul-26 00:34N 58°56' E 011°10'0 0.0
2016-Jul-25 23:33N 58°56' E 011°10'0 0.0
2016-Jul-25 22:33N 58°56' E 011°10'0 0.0
2016-Jul-25 21:34N 58°56' E 011°10'0 0.0
2016-Jul-25 20:34N 58°56' E 011°10'0 0.0
2016-Jul-25 19:34N 58°56' E 011°10'0 0.0
2016-Jul-25 18:33N 58°56' E 011°10'3 3.4
2016-Jul-25 17:33N 58°54' E 011°05'3 2.7
2016-Jul-25 16:34N 58°52' E 011°06'1 1.1
2016-Jul-25 15:34N 58°51' E 011°06'1 1.3
2016-Jul-25 14:34N 58°49' E 011°06'1 1.4
2016-Jul-25 13:34N 58°48' E 011°06'2 1.5
2016-Jul-25 12:33N 58°47' E 011°04'1 0.9
2016-Jul-25 11:33N 58°47' E 011°04'2 1.6
2016-Jul-25 10:34N 58°49' E 011°05'1 1.4
2016-Jul-25 09:33N 58°48' E 011°06'1 0.9
2016-Jul-25 08:33N 58°47' E 011°05'1 1.1
2016-Jul-25 07:33N 58°47' E 011°03'1 1.4
2016-Jul-25 06:34N 58°48' E 011°04'1 1.3
2016-Jul-25 05:33N 58°49' E 011°05'1 1.3
2016-Jul-25 04:34N 58°51' E 011°06'1 1.4
2016-Jul-25 03:34N 58°52' E 011°06'2 2.2
2016-Jul-25 02:33N 58°54' E 011°05'3 3.3
2016-Jul-25 01:33N 58°56' E 011°10'0 0.0
2016-Jul-25 00:34N 58°56' E 011°10'0 0.0
2016-Jul-24 23:33N 58°56' E 011°10'0 0.0
2016-Jul-24 22:34N 58°56' E 011°10'0 0.0
2016-Jul-24 21:33N 58°56' E 011°10'0 0.0
2016-Jul-24 20:33N 58°56' E 011°10'0 0.0
2016-Jul-24 19:34N 58°56' E 011°10'0 0.0
2016-Jul-24 18:33N 58°56' E 011°10'0 0.0
2016-Jul-24 17:34N 58°56' E 011°10'0 0.0
2016-Jul-24 16:33N 58°56' E 011°10'0 0.0
2016-Jul-24 15:33N 58°56' E 011°10'0 0.0
2016-Jul-24 14:34N 58°56' E 011°10'0 0.0
2016-Jul-24 13:34N 58°56' E 011°10'0 0.0
2016-Jul-24 12:34N 58°56' E 011°10'0 0.0
2016-Jul-24 11:34N 58°56' E 011°10'0 0.0
2016-Jul-24 10:34N 58°56' E 011°10'0 0.0
2016-Jul-24 09:34N 58°56' E 011°10'0 0.0
2016-Jul-24 08:33N 58°56' E 011°10'0 0.0
2016-Jul-24 07:34N 58°56' E 011°10'0 0.0
2016-Jul-24 06:34N 58°56' E 011°10'0 0.0
2016-Jul-24 05:34N 58°56' E 011°10'0 0.0
2016-Jul-24 04:34N 58°56' E 011°10'0 0.0
2016-Jul-24 03:34N 58°56' E 011°10'0 0.0
2016-Jul-24 02:33N 58°56' E 011°10'0 0.0
2016-Jul-24 01:34N 58°56' E 011°10'0 0.0
2016-Jul-24 00:33N 58°56' E 011°10'0 0.0
2016-Jul-23 23:34N 58°56' E 011°10'0 0.0
2016-Jul-23 22:34N 58°56' E 011°10'0 0.0
2016-Jul-23 21:33N 58°56' E 011°10'0 0.0
2016-Jul-23 20:34N 58°56' E 011°10'0 0.0
2016-Jul-23 19:33N 58°56' E 011°10'0 0.0
2016-Jul-23 18:34N 58°56' E 011°10'0 0.0
2016-Jul-23 17:33N 58°56' E 011°10'0 0.0
2016-Jul-23 16:33N 58°56' E 011°10'0 0.0
2016-Jul-23 15:34N 58°56' E 011°10'0 0.0
2016-Jul-23 14:33N 58°56' E 011°10'0 0.0
2016-Jul-23 13:33N 58°56' E 011°10'0 0.0
2016-Jul-23 12:33N 58°56' E 011°10'0 0.0
2016-Jul-23 11:34N 58°56' E 011°10'0 0.0
2016-Jul-23 10:34N 58°56' E 011°10'0 0.0
2016-Jul-23 09:34N 58°56' E 011°10'0 0.0
2016-Jul-23 08:33N 58°56' E 011°10'0 0.0
2016-Jul-23 07:33N 58°56' E 011°10'0 0.0
2016-Jul-23 06:33N 58°56' E 011°10'0 0.0
2016-Jul-23 04:34N 58°56' E 011°10'0 0.0
2016-Jul-23 03:34N 58°56' E 011°10'0 0.0
2016-Jul-23 02:33N 58°56' E 011°10'0 0.0
2016-Jul-23 01:33N 58°56' E 011°10'0 0.0
2016-Jul-23 00:33N 58°56' E 011°10'0 0.0
2016-Jul-22 23:33N 58°56' E 011°10'0 0.0
2016-Jul-22 22:34N 58°56' E 011°10'0 0.0
2016-Jul-22 21:33N 58°56' E 011°10'0 0.0
2016-Jul-22 20:33N 58°56' E 011°10'0 0.0
2016-Jul-22 19:34N 58°56' E 011°10'0 0.0
2016-Jul-22 18:34N 58°56' E 011°10'0 0.0
2016-Jul-22 17:33N 58°56' E 011°10'0 0.0
2016-Jul-22 16:34N 58°56' E 011°10'0 0.0
2016-Jul-22 15:34N 58°56' E 011°10'0 0.0
2016-Jul-22 14:33N 58°56' E 011°10'0 0.0
2016-Jul-22 13:33N 58°56' E 011°10'0 0.0
2016-Jul-22 12:33N 58°56' E 011°10'0 0.0
2016-Jul-22 11:34N 58°56' E 011°10'0 0.0
2016-Jul-22 10:33N 58°56' E 011°10'0 0.0
2016-Jul-22 09:34N 58°56' E 011°10'0 0.0
2016-Jul-22 08:33N 58°56' E 011°10'0 0.0
2016-Jul-22 07:34N 58°56' E 011°10'0 0.0
2016-Jul-22 05:33N 58°56' E 011°10'0 0.0
2016-Jul-22 04:33N 58°56' E 011°10'0 0.0
2016-Jul-22 03:34N 58°56' E 011°10'0 0.0
2016-Jul-22 02:34N 58°56' E 011°10'0 0.0
2016-Jul-22 01:34N 58°56' E 011°10'0 0.0
2016-Jul-22 00:34N 58°56' E 011°10'0 0.0
2016-Jul-21 23:33N 58°56' E 011°10'0 0.0
2016-Jul-21 22:33N 58°56' E 011°10'0 0.0
2016-Jul-21 21:34N 58°56' E 011°10'0 0.0
2016-Jul-21 20:33N 58°56' E 011°10'0 0.0
2016-Jul-21 19:33N 58°56' E 011°10'0 0.0
2016-Jul-21 18:34N 58°56' E 011°10'0 0.0
2016-Jul-21 17:34N 58°56' E 011°10'0 0.0
2016-Jul-21 16:34N 58°56' E 011°10'0 0.0
2016-Jul-21 15:34N 58°56' E 011°10'0 0.0
2016-Jul-21 14:34N 58°56' E 011°10'0 0.0
2016-Jul-21 13:33N 58°56' E 011°10'0 0.0
2016-Jul-21 12:34N 58°56' E 011°10'0 0.0
2016-Jul-21 11:33N 58°56' E 011°10'0 0.0
2016-Jul-21 10:34N 58°56' E 011°10'0 0.0
2016-Jul-21 09:33N 58°56' E 011°10'0 0.0
2016-Jul-21 08:33N 58°56' E 011°10'0 0.0
2016-Jul-21 07:34N 58°56' E 011°10'0 0.0
2016-Jul-21 06:33N 58°56' E 011°10'0 0.0
2016-Jul-21 05:34N 58°56' E 011°10'0 0.0
2016-Jul-21 04:33N 58°56' E 011°10'0 0.0
2016-Jul-21 03:33N 58°56' E 011°10'0 0.0
2016-Jul-21 02:33N 58°56' E 011°10'0 0.0
2016-Jul-21 01:33N 58°56' E 011°10'0 0.0
2016-Jul-21 00:34N 58°56' E 011°10'0 0.0
2016-Jul-20 23:34N 58°56' E 011°10'0 0.0
2016-Jul-20 22:34N 58°56' E 011°10'0 0.0
2016-Jul-20 21:34N 58°56' E 011°10'0 0.0
2016-Jul-20 20:33N 58°56' E 011°10'0 0.0
2016-Jul-20 19:34N 58°56' E 011°10'0 0.0
2016-Jul-20 18:34N 58°56' E 011°10'0 0.0
2016-Jul-20 17:34N 58°56' E 011°10'0 0.0
2016-Jul-20 16:33N 58°56' E 011°10'4 3.5
2016-Jul-20 15:34N 58°54' E 011°05'2 2.3
2016-Jul-20 14:34N 58°52' E 011°07'0 0.2
2016-Jul-20 13:33N 58°52' E 011°06'1 1.0
2016-Jul-20 12:34N 58°53' E 011°06'1 1.3
2016-Jul-20 11:34N 58°54' E 011°04'1 1.3
2016-Jul-20 10:34N 58°55' E 011°04'1 1.3
2016-Jul-20 09:33N 58°56' E 011°04'1 0.7
2016-Jul-20 08:33N 58°56' E 011°03'1 1.2
2016-Jul-20 07:33N 58°55' E 011°04'2 1.5
2016-Jul-20 06:34N 58°54' E 011°04'1 1.3
2016-Jul-20 05:33N 58°55' E 011°04'1 1.3
2016-Jul-20 04:34N 58°56' E 011°03'1 1.3
2016-Jul-20 03:33N 58°57' E 011°03'1 1.2
2016-Jul-20 02:33N 58°57' E 011°05'3 2.9
2016-Jul-20 01:33N 58°56' E 011°10'0 0.0
2016-Jul-20 00:34N 58°56' E 011°10'0 0.0
2016-Jul-19 23:34N 58°56' E 011°10'0 0.0
2016-Jul-19 22:34N 58°56' E 011°10'0 0.0
2016-Jul-19 21:33N 58°56' E 011°10'0 0.0
2016-Jul-19 20:33N 58°56' E 011°10'0 0.0
2016-Jul-19 19:33N 58°56' E 011°10'0 0.0
2016-Jul-19 18:33N 58°56' E 011°10'4 3.6
2016-Jul-19 17:33N 58°56' E 011°03'0 0.3
2016-Jul-19 16:32N 58°55' E 011°04'1 1.3
2016-Jul-19 15:33N 58°54' E 011°04'1 1.3
2016-Jul-19 14:34N 58°53' E 011°05'1 1.5
2016-Jul-19 13:33N 58°52' E 011°06'1 1.3
2016-Jul-19 12:33N 58°50' E 011°06'1 1.3
2016-Jul-19 11:34N 58°49' E 011°05'1 1.4
2016-Jul-19 10:34N 58°48' E 011°05'0 0.4
2016-Jul-19 09:34N 58°48' E 011°04'1 1.4
2016-Jul-19 08:31N 58°47' E 011°03'1 0.8
2016-Jul-19 07:33N 58°47' E 011°05'4 1.3
2016-Jul-19 04:34N 58°51' E 011°06'1 1.3
2016-Jul-19 03:33N 58°52' E 011°06'2 2.5
2016-Jul-19 02:34N 58°54' E 011°05'3 3.0
2016-Jul-19 01:33N 58°56' E 011°10'0 0.0
2016-Jul-19 00:34N 58°56' E 011°10'0 0.0
2016-Jul-18 23:34N 58°56' E 011°10'0 0.0
2016-Jul-18 22:33N 58°56' E 011°10'0 0.0
2016-Jul-18 21:33N 58°56' E 011°10'0 0.0
2016-Jul-18 20:33N 58°56' E 011°10'0 0.0
2016-Jul-18 19:33N 58°56' E 011°10'0 0.2
2016-Jul-18 18:33N 58°56' E 011°10'4 3.7
2016-Jul-18 17:33N 58°53' E 011°05'1 1.2
2016-Jul-18 16:34N 58°52' E 011°06'1 1.3
2016-Jul-18 15:34N 58°51' E 011°06'1 1.3
2016-Jul-18 14:33N 58°50' E 011°05'1 1.4
2016-Jul-18 13:34N 58°48' E 011°05'1 1.4
2016-Jul-18 12:33N 58°47' E 011°04'1 0.8
2016-Jul-18 11:33N 58°47' E 011°05'1 1.4
2016-Jul-18 10:34N 58°48' E 011°05'1 0.5
2016-Jul-18 09:34N 58°48' E 011°04'1 1.4
2016-Jul-18 08:34N 58°47' E 011°03'1 0.7
2016-Jul-18 07:33N 58°47' E 011°05'1 1.2
2016-Jul-18 06:33N 58°48' E 011°06'1 1.3
2016-Jul-18 05:34N 58°49' E 011°05'1 1.3
2016-Jul-18 04:34N 58°51' E 011°06'2 1.5
2016-Jul-18 03:34N 58°52' E 011°06'3 3.0
2016-Jul-18 02:33N 58°55' E 011°06'2 2.4
2016-Jul-18 01:33N 58°56' E 011°10'0 0.0
2016-Jul-18 00:33N 58°56' E 011°10'0 0.0
2016-Jul-17 23:34N 58°56' E 011°10'0 0.0
2016-Jul-17 22:34N 58°56' E 011°10'0 0.0
2016-Jul-17 21:33N 58°56' E 011°10'0 0.0
2016-Jul-17 20:33N 58°56' E 011°10'0 0.0
2016-Jul-17 19:33N 58°56' E 011°10'0 0.4
2016-Jul-17 18:33N 58°56' E 011°10'0 0.4
2016-Jul-17 17:34N 58°56' E 011°10'0 0.0
2016-Jul-17 16:34N 58°56' E 011°10'0 0.0
2016-Jul-17 15:33N 58°56' E 011°10'0 0.0
2016-Jul-17 14:34N 58°56' E 011°10'0 0.0
2016-Jul-17 13:34N 58°56' E 011°10'0 0.0
2016-Jul-17 12:33N 58°56' E 011°10'0 0.0
2016-Jul-17 11:34N 58°56' E 011°10'0 0.0
2016-Jul-17 10:34N 58°56' E 011°10'0 0.0
2016-Jul-17 09:33N 58°56' E 011°10'0 0.0
2016-Jul-17 08:33N 58°56' E 011°10'0 0.0
2016-Jul-17 07:34N 58°56' E 011°10'0 0.0
2016-Jul-17 06:34N 58°56' E 011°10'0 0.0
2016-Jul-17 04:33N 58°56' E 011°10'0 0.0
2016-Jul-17 03:33N 58°56' E 011°10'0 0.0
2016-Jul-17 02:33N 58°56' E 011°10'0 0.0
2016-Jul-17 01:34N 58°56' E 011°10'0 0.0
2016-Jul-17 00:34N 58°56' E 011°10'0 0.0
2016-Jul-16 23:33N 58°56' E 011°10'0 0.0
2016-Jul-16 22:33N 58°56' E 011°10'0 0.0
2016-Jul-16 21:34N 58°56' E 011°10'0 0.0
2016-Jul-16 20:33N 58°56' E 011°10'0 0.0
2016-Jul-16 19:34N 58°56' E 011°10'0 0.0
2016-Jul-16 18:33N 58°56' E 011°10'0 0.0
2016-Jul-16 17:33N 58°56' E 011°10'0 0.0
2016-Jul-16 16:34N 58°56' E 011°10'  
Track history (hours):
 
Tides and Currents Weather Stations Pressure Air Temp Water Temp Dewpoint Dewpoint Depression Visibility Wind Speed Wind Dir Waves Ship Positions

Sd416 Nippon

Last reported at 2016-Jul-26 15:34 UTC. Time now 2016-Jul-26 16:03 UTC.
Position N 58°55' E 011°04'.

Length 17 m; draft 2.5 m.

Type: Fishing. MMSI: 266163000.

Date/timePositionNaut miles runAvg speedWind from/ knotsBaromVisibWave heightAir tempDewpointWater temp
2016-Jul-26 15:34N 58°55' E 011°04'1 1.5
2016-Jul-26 14:33N 58°53' E 011°05'1 1.4
2016-Jul-26 13:33N 58°52' E 011°06'1 1.4
2016-Jul-26 12:33N 58°51' E 011°06'1 1.4
2016-Jul-26 11:33N 58°49' E 011°05'2 1.6
2016-Jul-26 10:33N 58°48' E 011°04'0 0.2
2016-Jul-26 09:34N 58°48' E 011°04'1 1.0
2016-Jul-26 08:34N 58°47' E 011°04'1 0.6
2016-Jul-26 07:33N 58°47' E 011°05'1 1.1
2016-Jul-26 06:34N 58°48' E 011°05'1 1.3
2016-Jul-26 05:33N 58°50' E 011°07'1 1.3
2016-Jul-26 04:33N 58°51' E 011°06'1 1.4
2016-Jul-26 03:33N 58°52' E 011°06'2 2.0
2016-Jul-26 02:33N 58°54' E 011°05'3 3.3
2016-Jul-26 01:34N 58°56' E 011°10'0 0.0
2016-Jul-26 00:34N 58°56' E 011°10'0 0.0
2016-Jul-25 23:33N 58°56' E 011°10'0 0.0
2016-Jul-25 22:33N 58°56' E 011°10'0 0.0
2016-Jul-25 21:34N 58°56' E 011°10'0 0.0
2016-Jul-25 20:34N 58°56' E 011°10'0 0.0
2016-Jul-25 19:34N 58°56' E 011°10'0 0.0
2016-Jul-25 18:33N 58°56' E 011°10'3 3.4
2016-Jul-25 17:33N 58°54' E 011°05'3 2.7
2016-Jul-25 16:34N 58°52' E 011°06'1 1.1
2016-Jul-25 15:34N 58°51' E 011°06'1 1.3
2016-Jul-25 14:34N 58°49' E 011°06'1 1.4
2016-Jul-25 13:34N 58°48' E 011°06'2 1.5
2016-Jul-25 12:33N 58°47' E 011°04'1 0.9
2016-Jul-25 11:33N 58°47' E 011°04'2 1.6
2016-Jul-25 10:34N 58°49' E 011°05'1 1.4
2016-Jul-25 09:33N 58°48' E 011°06'1 0.9
2016-Jul-25 08:33N 58°47' E 011°05'1 1.1
2016-Jul-25 07:33N 58°47' E 011°03'1 1.4
2016-Jul-25 06:34N 58°48' E 011°04'1 1.3
2016-Jul-25 05:33N 58°49' E 011°05'1 1.3
2016-Jul-25 04:34N 58°51' E 011°06'1 1.4
2016-Jul-25 03:34N 58°52' E 011°06'2 2.2
2016-Jul-25 02:33N 58°54' E 011°05'3 3.3
2016-Jul-25 01:33N 58°56' E 011°10'0 0.0
2016-Jul-25 00:34N 58°56' E 011°10'0 0.0
2016-Jul-24 23:33N 58°56' E 011°10'0 0.0
2016-Jul-24 22:34N 58°56' E 011°10'0 0.0
2016-Jul-24 21:33N 58°56' E 011°10'0 0.0
2016-Jul-24 20:33N 58°56' E 011°10'0 0.0
2016-Jul-24 19:34N 58°56' E 011°10'0 0.0
2016-Jul-24 18:33N 58°56' E 011°10'0 0.0
2016-Jul-24 17:34N 58°56' E 011°10'0 0.0
2016-Jul-24 16:33N 58°56' E 011°10'0 0.0
2016-Jul-24 15:33N 58°56' E 011°10'0 0.0
2016-Jul-24 14:34N 58°56' E 011°10'0 0.0
2016-Jul-24 13:34N 58°56' E 011°10'0 0.0
2016-Jul-24 12:34N 58°56' E 011°10'0 0.0
2016-Jul-24 11:34N 58°56' E 011°10'0 0.0
2016-Jul-24 10:34N 58°56' E 011°10'0 0.0
2016-Jul-24 09:34N 58°56' E 011°10'0 0.0
2016-Jul-24 08:33N 58°56' E 011°10'0 0.0
2016-Jul-24 07:34N 58°56' E 011°10'0 0.0
2016-Jul-24 06:34N 58°56' E 011°10'0 0.0
2016-Jul-24 05:34N 58°56' E 011°10'0 0.0
2016-Jul-24 04:34N 58°56' E 011°10'0 0.0
2016-Jul-24 03:34N 58°56' E 011°10'0 0.0
2016-Jul-24 02:33N 58°56' E 011°10'0 0.0
2016-Jul-24 01:34N 58°56' E 011°10'0 0.0
2016-Jul-24 00:33N 58°56' E 011°10'0 0.0
2016-Jul-23 23:34N 58°56' E 011°10'0 0.0
2016-Jul-23 22:34N 58°56' E 011°10'0 0.0
2016-Jul-23 21:33N 58°56' E 011°10'0 0.0
2016-Jul-23 20:34N 58°56' E 011°10'0 0.0
2016-Jul-23 19:33N 58°56' E 011°10'0 0.0
2016-Jul-23 18:34N 58°56' E 011°10'0 0.0
2016-Jul-23 17:33N 58°56' E 011°10'0 0.0
2016-Jul-23 16:33N 58°56' E 011°10'0 0.0
2016-Jul-23 15:34N 58°56' E 011°10'0 0.0
2016-Jul-23 14:33N 58°56' E 011°10'0 0.0
2016-Jul-23 13:33N 58°56' E 011°10'0 0.0
2016-Jul-23 12:33N 58°56' E 011°10'0 0.0
2016-Jul-23 11:34N 58°56' E 011°10'0 0.0
2016-Jul-23 10:34N 58°56' E 011°10'0 0.0
2016-Jul-23 09:34N 58°56' E 011°10'0 0.0
2016-Jul-23 08:33N 58°56' E 011°10'0 0.0
2016-Jul-23 07:33N 58°56' E 011°10'0 0.0
2016-Jul-23 06:33N 58°56' E 011°10'0 0.0
2016-Jul-23 04:34N 58°56' E 011°10'0 0.0
2016-Jul-23 03:34N 58°56' E 011°10'0 0.0
2016-Jul-23 02:33N 58°56' E 011°10'0 0.0
2016-Jul-23 01:33N 58°56' E 011°10'0 0.0
2016-Jul-23 00:33N 58°56' E 011°10'0 0.0
2016-Jul-22 23:33N 58°56' E 011°10'0 0.0
2016-Jul-22 22:34N 58°56' E 011°10'0 0.0
2016-Jul-22 21:33N 58°56' E 011°10'0 0.0
2016-Jul-22 20:33N 58°56' E 011°10'0 0.0
2016-Jul-22 19:34N 58°56' E 011°10'0 0.0
2016-Jul-22 18:34N 58°56' E 011°10'0 0.0
2016-Jul-22 17:33N 58°56' E 011°10'0 0.0
2016-Jul-22 16:34N 58°56' E 011°10'0 0.0
2016-Jul-22 15:34N 58°56' E 011°10'0 0.0
2016-Jul-22 14:33N 58°56' E 011°10'0 0.0
2016-Jul-22 13:33N 58°56' E 011°10'0 0.0
2016-Jul-22 12:33N 58°56' E 011°10'0 0.0
2016-Jul-22 11:34N 58°56' E 011°10'0 0.0
2016-Jul-22 10:33N 58°56' E 011°10'0 0.0
2016-Jul-22 09:34N 58°56' E 011°10'0 0.0
2016-Jul-22 08:33N 58°56' E 011°10'0 0.0
2016-Jul-22 07:34N 58°56' E 011°10'0 0.0
2016-Jul-22 05:33N 58°56' E 011°10'0 0.0
2016-Jul-22 04:33N 58°56' E 011°10'0 0.0
2016-Jul-22 03:34N 58°56' E 011°10'0 0.0
2016-Jul-22 02:34N 58°56' E 011°10'0 0.0
2016-Jul-22 01:34N 58°56' E 011°10'0 0.0
2016-Jul-22 00:34N 58°56' E 011°10'0 0.0
2016-Jul-21 23:33N 58°56' E 011°10'0 0.0
2016-Jul-21 22:33N 58°56' E 011°10'0 0.0
2016-Jul-21 21:34N 58°56' E 011°10'0 0.0
2016-Jul-21 20:33N 58°56' E 011°10'0 0.0
2016-Jul-21 19:33N 58°56' E 011°10'0 0.0
2016-Jul-21 18:34N 58°56' E 011°10'0 0.0
2016-Jul-21 17:34N 58°56' E 011°10'0 0.0
2016-Jul-21 16:34N 58°56' E 011°10'0 0.0
2016-Jul-21 15:34N 58°56' E 011°10'0 0.0
2016-Jul-21 14:34N 58°56' E 011°10'0 0.0
2016-Jul-21 13:33N 58°56' E 011°10'0 0.0
2016-Jul-21 12:34N 58°56' E 011°10'0 0.0
2016-Jul-21 11:33N 58°56' E 011°10'0 0.0
2016-Jul-21 10:34N 58°56' E 011°10'0 0.0
2016-Jul-21 09:33N 58°56' E 011°10'0 0.0
2016-Jul-21 08:33N 58°56' E 011°10'0 0.0
2016-Jul-21 07:34N 58°56' E 011°10'0 0.0
2016-Jul-21 06:33N 58°56' E 011°10'0 0.0
2016-Jul-21 05:34N 58°56' E 011°10'0 0.0
2016-Jul-21 04:33N 58°56' E 011°10'0 0.0
2016-Jul-21 03:33N 58°56' E 011°10'0 0.0
2016-Jul-21 02:33N 58°56' E 011°10'0 0.0
2016-Jul-21 01:33N 58°56' E 011°10'0 0.0
2016-Jul-21 00:34N 58°56' E 011°10'0 0.0
2016-Jul-20 23:34N 58°56' E 011°10'0 0.0
2016-Jul-20 22:34N 58°56' E 011°10'0 0.0
2016-Jul-20 21:34N 58°56' E 011°10'0 0.0
2016-Jul-20 20:33N 58°56' E 011°10'0 0.0
2016-Jul-20 19:34N 58°56' E 011°10'0 0.0
2016-Jul-20 18:34N 58°56' E 011°10'0 0.0
2016-Jul-20 17:34N 58°56' E 011°10'0 0.0
2016-Jul-20 16:33N 58°56' E 011°10'4 3.5
2016-Jul-20 15:34N 58°54' E 011°05'2 2.3
2016-Jul-20 14:34N 58°52' E 011°07'0 0.2
2016-Jul-20 13:33N 58°52' E 011°06'1 1.0
2016-Jul-20 12:34N 58°53' E 011°06'1 1.3
2016-Jul-20 11:34N 58°54' E 011°04'1 1.3
2016-Jul-20 10:34N 58°55' E 011°04'1 1.3
2016-Jul-20 09:33N 58°56' E 011°04'1 0.7
2016-Jul-20 08:33N 58°56' E 011°03'1 1.2
2016-Jul-20 07:33N 58°55' E 011°04'2 1.5
2016-Jul-20 06:34N 58°54' E 011°04'1 1.3
2016-Jul-20 05:33N 58°55' E 011°04'1 1.3
2016-Jul-20 04:34N 58°56' E 011°03'1 1.3
2016-Jul-20 03:33N 58°57' E 011°03'1 1.2
2016-Jul-20 02:33N 58°57' E 011°05'3 2.9
2016-Jul-20 01:33N 58°56' E 011°10'0 0.0
2016-Jul-20 00:34N 58°56' E 011°10'0 0.0
2016-Jul-19 23:34N 58°56' E 011°10'0 0.0
2016-Jul-19 22:34N 58°56' E 011°10'0 0.0
2016-Jul-19 21:33N 58°56' E 011°10'0 0.0
2016-Jul-19 20:33N 58°56' E 011°10'0 0.0
2016-Jul-19 19:33N 58°56' E 011°10'0 0.0
2016-Jul-19 18:33N 58°56' E 011°10'4 3.6
2016-Jul-19 17:33N 58°56' E 011°03'0 0.3
2016-Jul-19 16:32N 58°55' E 011°04'1 1.3
2016-Jul-19 15:33N 58°54' E 011°04'1 1.3
2016-Jul-19 14:34N 58°53' E 011°05'1 1.5
2016-Jul-19 13:33N 58°52' E 011°06'1 1.3
2016-Jul-19 12:33N 58°50' E 011°06'1 1.3
2016-Jul-19 11:34N 58°49' E 011°05'1 1.4
2016-Jul-19 10:34N 58°48' E 011°05'0 0.4
2016-Jul-19 09:34N 58°48' E 011°04'1 1.4
2016-Jul-19 08:31N 58°47' E 011°03'1 0.8
2016-Jul-19 07:33N 58°47' E 011°05'4 1.3
2016-Jul-19 04:34N 58°51' E 011°06'1 1.3
2016-Jul-19 03:33N 58°52' E 011°06'2 2.5
2016-Jul-19 02:34N 58°54' E 011°05'3 3.0
2016-Jul-19 01:33N 58°56' E 011°10'0 0.0
2016-Jul-19 00:34N 58°56' E 011°10'0 0.0
2016-Jul-18 23:34N 58°56' E 011°10'0 0.0
2016-Jul-18 22:33N 58°56' E 011°10'0 0.0
2016-Jul-18 21:33N 58°56' E 011°10'0 0.0
2016-Jul-18 20:33N 58°56' E 011°10'0 0.0
2016-Jul-18 19:33N 58°56' E 011°10'0 0.2
2016-Jul-18 18:33N 58°56' E 011°10'4 3.7
2016-Jul-18 17:33N 58°53' E 011°05'1 1.2
2016-Jul-18 16:34N 58°52' E 011°06'1 1.3
2016-Jul-18 15:34N 58°51' E 011°06'1 1.3
2016-Jul-18 14:33N 58°50' E 011°05'1 1.4
2016-Jul-18 13:34N 58°48' E 011°05'1 1.4
2016-Jul-18 12:33N 58°47' E 011°04'1 0.8
2016-Jul-18 11:33N 58°47' E 011°05'1 1.4
2016-Jul-18 10:34N 58°48' E 011°05'1 0.5
2016-Jul-18 09:34N 58°48' E 011°04'1 1.4
2016-Jul-18 08:34N 58°47' E 011°03'1 0.7
2016-Jul-18 07:33N 58°47' E 011°05'1 1.2
2016-Jul-18 06:33N 58°48' E 011°06'1 1.3
2016-Jul-18 05:34N 58°49' E 011°05'1 1.3
2016-Jul-18 04:34N 58°51' E 011°06'2 1.5
2016-Jul-18 03:34N 58°52' E 011°06'3 3.0
2016-Jul-18 02:33N 58°55' E 011°06'2 2.4
2016-Jul-18 01:33N 58°56' E 011°10'0 0.0
2016-Jul-18 00:33N 58°56' E 011°10'0 0.0
2016-Jul-17 23:34N 58°56' E 011°10'0 0.0
2016-Jul-17 22:34N 58°56' E 011°10'0 0.0
2016-Jul-17 21:33N 58°56' E 011°10'0 0.0
2016-Jul-17 20:33N 58°56' E 011°10'0 0.0
2016-Jul-17 19:33N 58°56' E 011°10'0 0.4
2016-Jul-17 18:33N 58°56' E 011°10'0 0.4
2016-Jul-17 17:34N 58°56' E 011°10'0 0.0
2016-Jul-17 16:34N 58°56' E 011°10'0 0.0
2016-Jul-17 15:33N 58°56' E 011°10'0 0.0
2016-Jul-17 14:34N 58°56' E 011°10'0 0.0
2016-Jul-17 13:34N 58°56' E 011°10'0 0.0
2016-Jul-17 12:33N 58°56' E 011°10'0 0.0
2016-Jul-17 11:34N 58°56' E 011°10'0 0.0
2016-Jul-17 10:34N 58°56' E 011°10'0 0.0
2016-Jul-17 09:33N 58°56' E 011°10'0 0.0
2016-Jul-17 08:33N 58°56' E 011°10'0 0.0
2016-Jul-17 07:34N 58°56' E 011°10'0 0.0
2016-Jul-17 06:34N 58°56' E 011°10'0 0.0
2016-Jul-17 04:33N 58°56' E 011°10'0 0.0
2016-Jul-17 03:33N 58°56' E 011°10'0 0.0
2016-Jul-17 02:33N 58°56' E 011°10'0 0.0
2016-Jul-17 01:34N 58°56' E 011°10'0 0.0
2016-Jul-17 00:34N 58°56' E 011°10'0 0.0
2016-Jul-16 23:33N 58°56' E 011°10'0 0.0
2016-Jul-16 22:33N 58°56' E 011°10'0 0.0
2016-Jul-16 21:34N 58°56' E 011°10'0 0.0
2016-Jul-16 20:33N 58°56' E 011°10'0 0.0
2016-Jul-16 19:34N 58°56' E 011°10'0 0.0
2016-Jul-16 18:33N 58°56' E 011°10'0 0.0
2016-Jul-16 17:33N 58°56' E 011°10'0 0.0
2016-Jul-16 16:34N 58°56' E 011°10'  

Dump ship's entire track history